sensor_id;sensor_type;location;lat;lon;timestamp;P1;durP1;ratioP1;P2;durP2;ratioP2
8572;SDS011;4324;42.012;24.872;2023-02-28T00:01:19;15.07;;;6.67;;
8572;SDS011;4324;42.012;24.872;2023-02-28T00:03:47;22.93;;;6.47;;
8572;SDS011;4324;42.012;24.872;2023-02-28T00:06:14;15.57;;;6.57;;
8572;SDS011;4324;42.012;24.872;2023-02-28T00:08:41;19.93;;;6.80;;
8572;SDS011;4324;42.012;24.872;2023-02-28T00:11:08;23.00;;;7.13;;
8572;SDS011;4324;42.012;24.872;2023-02-28T00:13:40;19.53;;;6.97;;
8572;SDS011;4324;42.012;24.872;2023-02-28T00:16:11;25.17;;;6.77;;
8572;SDS011;4324;42.012;24.872;2023-02-28T00:18:40;16.93;;;7.03;;
8572;SDS011;4324;42.012;24.872;2023-02-28T00:21:07;16.90;;;6.13;;
8572;SDS011;4324;42.012;24.872;2023-02-28T00:23:35;17.50;;;6.67;;
8572;SDS011;4324;42.012;24.872;2023-02-28T00:26:01;19.83;;;6.97;;
8572;SDS011;4324;42.012;24.872;2023-02-28T00:28:29;19.33;;;7.13;;
8572;SDS011;4324;42.012;24.872;2023-02-28T00:30:56;19.40;;;7.47;;
8572;SDS011;4324;42.012;24.872;2023-02-28T00:33:26;20.97;;;6.37;;
8572;SDS011;4324;42.012;24.872;2023-02-28T00:36:00;17.03;;;6.40;;
8572;SDS011;4324;42.012;24.872;2023-02-28T00:38:29;19.50;;;6.67;;
8572;SDS011;4324;42.012;24.872;2023-02-28T00:40:55;19.73;;;6.77;;
8572;SDS011;4324;42.012;24.872;2023-02-28T00:43:23;23.57;;;6.40;;
8572;SDS011;4324;42.012;24.872;2023-02-28T00:45:50;21.40;;;6.30;;
8572;SDS011;4324;42.012;24.872;2023-02-28T00:48:17;20.07;;;7.27;;
8572;SDS011;4324;42.012;24.872;2023-02-28T00:50:45;18.07;;;6.73;;
8572;SDS011;4324;42.012;24.872;2023-02-28T00:53:14;16.17;;;6.33;;
8572;SDS011;4324;42.012;24.872;2023-02-28T00:55:41;15.17;;;6.70;;
8572;SDS011;4324;42.012;24.872;2023-02-28T00:58:08;22.03;;;7.93;;
8572;SDS011;4324;42.012;24.872;2023-02-28T01:00:35;15.80;;;7.73;;
8572;SDS011;4324;42.012;24.872;2023-02-28T01:03:02;15.57;;;5.37;;
8572;SDS011;4324;42.012;24.872;2023-02-28T01:05:29;17.07;;;6.10;;
8572;SDS011;4324;42.012;24.872;2023-02-28T01:07:57;21.10;;;6.30;;
8572;SDS011;4324;42.012;24.872;2023-02-28T01:10:24;16.70;;;5.47;;
8572;SDS011;4324;42.012;24.872;2023-02-28T01:12:51;18.73;;;5.77;;
8572;SDS011;4324;42.012;24.872;2023-02-28T01:15:18;20.33;;;6.37;;
8572;SDS011;4324;42.012;24.872;2023-02-28T01:17:45;15.80;;;6.17;;
8572;SDS011;4324;42.012;24.872;2023-02-28T01:20:12;21.03;;;6.57;;
8572;SDS011;4324;42.012;24.872;2023-02-28T01:22:39;18.53;;;6.57;;
8572;SDS011;4324;42.012;24.872;2023-02-28T01:25:08;19.43;;;7.20;;
8572;SDS011;4324;42.012;24.872;2023-02-28T01:27:34;15.43;;;7.33;;
8572;SDS011;4324;42.012;24.872;2023-02-28T01:30:02;15.77;;;6.93;;
8572;SDS011;4324;42.012;24.872;2023-02-28T01:32:29;14.03;;;6.90;;
8572;SDS011;4324;42.012;24.872;2023-02-28T01:34:56;16.33;;;6.83;;
8572;SDS011;4324;42.012;24.872;2023-02-28T01:37:22;16.93;;;7.33;;
8572;SDS011;4324;42.012;24.872;2023-02-28T01:39:49;18.90;;;7.40;;
8572;SDS011;4324;42.012;24.872;2023-02-28T01:42:17;15.90;;;6.63;;
8572;SDS011;4324;42.012;24.872;2023-02-28T01:44:55;15.57;;;7.40;;
8572;SDS011;4324;42.012;24.872;2023-02-28T01:47:26;16.27;;;7.67;;
8572;SDS011;4324;42.012;24.872;2023-02-28T01:49:55;17.87;;;6.83;;
8572;SDS011;4324;42.012;24.872;2023-02-28T01:52:22;13.37;;;7.03;;
8572;SDS011;4324;42.012;24.872;2023-02-28T01:54:51;16.23;;;7.10;;
8572;SDS011;4324;42.012;24.872;2023-02-28T01:57:22;18.13;;;6.70;;
8572;SDS011;4324;42.012;24.872;2023-02-28T01:59:54;16.70;;;6.53;;
8572;SDS011;4324;42.012;24.872;2023-02-28T02:02:24;20.17;;;7.17;;
8572;SDS011;4324;42.012;24.872;2023-02-28T02:04:54;20.70;;;7.53;;
8572;SDS011;4324;42.012;24.872;2023-02-28T02:07:26;16.33;;;6.03;;
8572;SDS011;4324;42.012;24.872;2023-02-28T02:10:01;13.77;;;6.00;;
8572;SDS011;4324;42.012;24.872;2023-02-28T02:12:34;17.80;;;5.20;;
8572;SDS011;4324;42.012;24.872;2023-02-28T02:15:15;19.53;;;5.50;;
8572;SDS011;4324;42.012;24.872;2023-02-28T02:17:45;24.67;;;5.80;;
8572;SDS011;4324;42.012;24.872;2023-02-28T02:20:27;16.23;;;4.83;;
8572;SDS011;4324;42.012;24.872;2023-02-28T02:23:29;13.97;;;4.90;;
8572;SDS011;4324;42.012;24.872;2023-02-28T02:26:16;15.53;;;5.90;;
8572;SDS011;4324;42.012;24.872;2023-02-28T02:29:24;18.37;;;5.13;;
8572;SDS011;4324;42.012;24.872;2023-02-28T02:32:18;19.03;;;5.53;;
8572;SDS011;4324;42.012;24.872;2023-02-28T02:35:08;14.37;;;5.90;;
8572;SDS011;4324;42.012;24.872;2023-02-28T02:37:40;15.30;;;5.30;;
8572;SDS011;4324;42.012;24.872;2023-02-28T02:40:14;16.57;;;5.97;;
8572;SDS011;4324;42.012;24.872;2023-02-28T02:42:46;13.17;;;5.50;;
8572;SDS011;4324;42.012;24.872;2023-02-28T02:45:18;15.57;;;5.77;;
8572;SDS011;4324;42.012;24.872;2023-02-28T02:47:50;18.63;;;6.63;;
8572;SDS011;4324;42.012;24.872;2023-02-28T02:50:21;18.67;;;6.40;;
8572;SDS011;4324;42.012;24.872;2023-02-28T02:52:51;17.57;;;8.10;;
8572;SDS011;4324;42.012;24.872;2023-02-28T02:55:23;18.67;;;7.90;;
8572;SDS011;4324;42.012;24.872;2023-02-28T02:57:51;19.70;;;9.03;;
8572;SDS011;4324;42.012;24.872;2023-02-28T03:00:22;16.40;;;8.80;;
8572;SDS011;4324;42.012;24.872;2023-02-28T03:02:53;15.27;;;9.13;;
8572;SDS011;4324;42.012;24.872;2023-02-28T03:05:25;14.33;;;9.07;;
8572;SDS011;4324;42.012;24.872;2023-02-28T03:07:54;14.77;;;9.37;;
8572;SDS011;4324;42.012;24.872;2023-02-28T03:10:28;14.50;;;8.47;;
8572;SDS011;4324;42.012;24.872;2023-02-28T03:13:00;14.73;;;9.63;;
8572;SDS011;4324;42.012;24.872;2023-02-28T03:15:45;16.23;;;9.17;;
8572;SDS011;4324;42.012;24.872;2023-02-28T03:18:24;12.90;;;9.77;;
8572;SDS011;4324;42.012;24.872;2023-02-28T03:21:06;16.27;;;10.00;;
8572;SDS011;4324;42.012;24.872;2023-02-28T03:23:44;20.40;;;9.57;;
8572;SDS011;4324;42.012;24.872;2023-02-28T03:26:17;15.87;;;9.47;;
8572;SDS011;4324;42.012;24.872;2023-02-28T03:28:49;17.23;;;9.90;;
8572;SDS011;4324;42.012;24.872;2023-02-28T03:31:24;14.63;;;9.17;;
8572;SDS011;4324;42.012;24.872;2023-02-28T03:33:58;16.23;;;8.63;;
8572;SDS011;4324;42.012;24.872;2023-02-28T03:36:29;16.13;;;8.73;;
8572;SDS011;4324;42.012;24.872;2023-02-28T03:39:09;15.93;;;9.90;;
8572;SDS011;4324;42.012;24.872;2023-02-28T03:41:43;10.67;;;8.53;;
8572;SDS011;4324;42.012;24.872;2023-02-28T03:44:15;16.33;;;9.83;;
8572;SDS011;4324;42.012;24.872;2023-02-28T03:46:48;15.03;;;9.50;;
8572;SDS011;4324;42.012;24.872;2023-02-28T03:49:21;13.53;;;9.03;;
8572;SDS011;4324;42.012;24.872;2023-02-28T03:51:52;18.73;;;9.17;;
8572;SDS011;4324;42.012;24.872;2023-02-28T03:54:22;10.63;;;9.20;;
8572;SDS011;4324;42.012;24.872;2023-02-28T03:56:53;14.90;;;10.00;;
8572;SDS011;4324;42.012;24.872;2023-02-28T03:59:27;14.10;;;10.23;;
8572;SDS011;4324;42.012;24.872;2023-02-28T04:02:00;16.87;;;9.97;;
8572;SDS011;4324;42.012;24.872;2023-02-28T04:04:27;15.57;;;9.97;;
8572;SDS011;4324;42.012;24.872;2023-02-28T04:07:01;15.70;;;10.23;;
8572;SDS011;4324;42.012;24.872;2023-02-28T04:09:30;17.57;;;10.43;;
8572;SDS011;4324;42.012;24.872;2023-02-28T04:11:57;15.27;;;10.13;;
8572;SDS011;4324;42.012;24.872;2023-02-28T04:14:24;15.60;;;10.10;;
8572;SDS011;4324;42.012;24.872;2023-02-28T04:16:51;15.57;;;10.63;;
8572;SDS011;4324;42.012;24.872;2023-02-28T04:19:18;14.83;;;9.97;;
8572;SDS011;4324;42.012;24.872;2023-02-28T04:21:46;13.60;;;10.97;;
8572;SDS011;4324;42.012;24.872;2023-02-28T04:24:16;16.20;;;11.57;;
8572;SDS011;4324;42.012;24.872;2023-02-28T04:26:45;12.47;;;10.20;;
8572;SDS011;4324;42.012;24.872;2023-02-28T04:29:13;13.23;;;10.60;;
8572;SDS011;4324;42.012;24.872;2023-02-28T04:31:44;13.07;;;11.47;;
8572;SDS011;4324;42.012;24.872;2023-02-28T04:34:11;13.40;;;10.10;;
8572;SDS011;4324;42.012;24.872;2023-02-28T04:36:38;14.93;;;10.97;;
8572;SDS011;4324;42.012;24.872;2023-02-28T04:39:05;16.43;;;11.23;;
8572;SDS011;4324;42.012;24.872;2023-02-28T04:41:33;14.93;;;10.47;;
8572;SDS011;4324;42.012;24.872;2023-02-28T04:44:00;16.87;;;11.20;;
8572;SDS011;4324;42.012;24.872;2023-02-28T04:46:27;15.47;;;11.60;;
8572;SDS011;4324;42.012;24.872;2023-02-28T04:48:54;14.80;;;10.37;;
8572;SDS011;4324;42.012;24.872;2023-02-28T04:51:21;14.33;;;11.27;;
8572;SDS011;4324;42.012;24.872;2023-02-28T04:53:48;11.43;;;10.23;;
8572;SDS011;4324;42.012;24.872;2023-02-28T04:56:15;15.53;;;10.57;;
8572;SDS011;4324;42.012;24.872;2023-02-28T04:58:45;12.50;;;10.00;;
8572;SDS011;4324;42.012;24.872;2023-02-28T05:01:17;13.90;;;11.03;;
8572;SDS011;4324;42.012;24.872;2023-02-28T05:03:46;13.03;;;10.67;;
8572;SDS011;4324;42.012;24.872;2023-02-28T05:06:14;14.50;;;11.47;;
8572;SDS011;4324;42.012;24.872;2023-02-28T05:08:41;14.07;;;11.77;;
8572;SDS011;4324;42.012;24.872;2023-02-28T05:11:14;14.80;;;11.47;;
8572;SDS011;4324;42.012;24.872;2023-02-28T05:13:43;12.43;;;9.83;;
8572;SDS011;4324;42.012;24.872;2023-02-28T05:16:11;14.57;;;10.57;;
8572;SDS011;4324;42.012;24.872;2023-02-28T05:18:38;13.97;;;9.57;;
8572;SDS011;4324;42.012;24.872;2023-02-28T05:21:05;16.60;;;9.93;;
8572;SDS011;4324;42.012;24.872;2023-02-28T05:23:32;14.10;;;10.50;;
8572;SDS011;4324;42.012;24.872;2023-02-28T05:25:59;14.90;;;10.57;;
8572;SDS011;4324;42.012;24.872;2023-02-28T05:28:26;13.07;;;11.67;;
8572;SDS011;4324;42.012;24.872;2023-02-28T05:30:53;14.33;;;9.63;;
8572;SDS011;4324;42.012;24.872;2023-02-28T05:33:21;15.03;;;11.97;;
8572;SDS011;4324;42.012;24.872;2023-02-28T05:35:48;15.13;;;11.63;;
8572;SDS011;4324;42.012;24.872;2023-02-28T05:38:15;15.87;;;12.40;;
8572;SDS011;4324;42.012;24.872;2023-02-28T05:40:43;15.60;;;10.70;;
8572;SDS011;4324;42.012;24.872;2023-02-28T05:43:10;15.97;;;11.83;;
8572;SDS011;4324;42.012;24.872;2023-02-28T05:45:37;21.03;;;18.73;;
8572;SDS011;4324;42.012;24.872;2023-02-28T05:48:04;15.77;;;12.10;;
8572;SDS011;4324;42.012;24.872;2023-02-28T05:50:33;13.20;;;10.90;;
8572;SDS011;4324;42.012;24.872;2023-02-28T05:53:00;12.07;;;10.33;;
8572;SDS011;4324;42.012;24.872;2023-02-28T05:55:27;14.40;;;11.63;;
8572;SDS011;4324;42.012;24.872;2023-02-28T05:57:54;11.90;;;10.40;;
8572;SDS011;4324;42.012;24.872;2023-02-28T06:00:21;13.10;;;9.57;;
8572;SDS011;4324;42.012;24.872;2023-02-28T06:02:48;15.93;;;11.40;;
8572;SDS011;4324;42.012;24.872;2023-02-28T06:05:17;12.40;;;10.83;;
8572;SDS011;4324;42.012;24.872;2023-02-28T06:07:45;17.00;;;12.43;;
8572;SDS011;4324;42.012;24.872;2023-02-28T06:10:13;23.73;;;14.77;;
8572;SDS011;4324;42.012;24.872;2023-02-28T06:12:40;19.13;;;13.97;;
8572;SDS011;4324;42.012;24.872;2023-02-28T06:15:09;17.97;;;13.20;;
8572;SDS011;4324;42.012;24.872;2023-02-28T06:17:39;18.10;;;14.63;;
8572;SDS011;4324;42.012;24.872;2023-02-28T06:20:07;20.23;;;13.10;;
8572;SDS011;4324;42.012;24.872;2023-02-28T06:22:37;20.63;;;14.70;;
8572;SDS011;4324;42.012;24.872;2023-02-28T06:25:07;21.87;;;14.63;;
8572;SDS011;4324;42.012;24.872;2023-02-28T06:27:34;28.13;;;19.93;;
8572;SDS011;4324;42.012;24.872;2023-02-28T06:30:01;22.80;;;17.60;;
8572;SDS011;4324;42.012;24.872;2023-02-28T06:32:28;21.90;;;16.73;;
8572;SDS011;4324;42.012;24.872;2023-02-28T06:34:55;25.23;;;17.13;;
8572;SDS011;4324;42.012;24.872;2023-02-28T06:37:23;24.13;;;17.10;;
8572;SDS011;4324;42.012;24.872;2023-02-28T06:39:52;22.83;;;16.63;;
8572;SDS011;4324;42.012;24.872;2023-02-28T06:42:22;26.33;;;19.07;;
8572;SDS011;4324;42.012;24.872;2023-02-28T06:44:54;25.07;;;19.77;;
8572;SDS011;4324;42.012;24.872;2023-02-28T06:47:21;23.27;;;17.87;;
8572;SDS011;4324;42.012;24.872;2023-02-28T06:49:48;28.00;;;23.33;;
8572;SDS011;4324;42.012;24.872;2023-02-28T06:52:18;31.17;;;23.90;;
8572;SDS011;4324;42.012;24.872;2023-02-28T06:54:47;29.60;;;21.53;;
8572;SDS011;4324;42.012;24.872;2023-02-28T06:57:26;27.47;;;19.27;;
8572;SDS011;4324;42.012;24.872;2023-02-28T06:59:56;25.50;;;20.13;;
8572;SDS011;4324;42.012;24.872;2023-02-28T07:02:23;29.93;;;22.43;;
8572;SDS011;4324;42.012;24.872;2023-02-28T07:04:50;34.33;;;25.73;;
8572;SDS011;4324;42.012;24.872;2023-02-28T07:07:17;29.13;;;22.23;;
8572;SDS011;4324;42.012;24.872;2023-02-28T07:09:44;31.37;;;22.83;;
8572;SDS011;4324;42.012;24.872;2023-02-28T07:12:11;34.73;;;25.73;;
8572;SDS011;4324;42.012;24.872;2023-02-28T07:14:39;28.40;;;22.10;;
8572;SDS011;4324;42.012;24.872;2023-02-28T07:17:07;33.87;;;25.13;;
8572;SDS011;4324;42.012;24.872;2023-02-28T07:19:34;23.47;;;18.20;;
8572;SDS011;4324;42.012;24.872;2023-02-28T07:22:00;31.13;;;21.17;;
8572;SDS011;4324;42.012;24.872;2023-02-28T07:24:28;19.03;;;16.07;;
8572;SDS011;4324;42.012;24.872;2023-02-28T07:26:55;20.63;;;16.17;;
8572;SDS011;4324;42.012;24.872;2023-02-28T07:29:22;22.37;;;14.57;;
8572;SDS011;4324;42.012;24.872;2023-02-28T07:31:50;18.60;;;13.90;;
8572;SDS011;4324;42.012;24.872;2023-02-28T07:34:18;20.53;;;16.13;;
8572;SDS011;4324;42.012;24.872;2023-02-28T07:36:45;21.33;;;13.80;;
8572;SDS011;4324;42.012;24.872;2023-02-28T07:39:12;21.50;;;15.03;;
8572;SDS011;4324;42.012;24.872;2023-02-28T07:41:39;24.97;;;16.53;;
8572;SDS011;4324;42.012;24.872;2023-02-28T07:44:08;19.73;;;14.33;;
8572;SDS011;4324;42.012;24.872;2023-02-28T07:46:35;21.03;;;13.67;;
8572;SDS011;4324;42.012;24.872;2023-02-28T07:49:04;26.37;;;19.07;;
8572;SDS011;4324;42.012;24.872;2023-02-28T07:51:32;16.77;;;14.23;;
8572;SDS011;4324;42.012;24.872;2023-02-28T07:54:00;18.90;;;15.03;;
8572;SDS011;4324;42.012;24.872;2023-02-28T07:56:29;22.73;;;15.30;;
8572;SDS011;4324;42.012;24.872;2023-02-28T07:58:56;21.93;;;16.47;;
8572;SDS011;4324;42.012;24.872;2023-02-28T08:01:23;30.03;;;19.83;;
8572;SDS011;4324;42.012;24.872;2023-02-28T08:03:50;21.80;;;14.57;;
8572;SDS011;4324;42.012;24.872;2023-02-28T08:06:19;30.47;;;20.63;;
8572;SDS011;4324;42.012;24.872;2023-02-28T08:08:48;36.33;;;21.90;;
8572;SDS011;4324;42.012;24.872;2023-02-28T08:11:15;27.23;;;20.53;;
8572;SDS011;4324;42.012;24.872;2023-02-28T08:13:43;19.13;;;15.17;;
8572;SDS011;4324;42.012;24.872;2023-02-28T08:16:11;15.97;;;14.27;;
8572;SDS011;4324;42.012;24.872;2023-02-28T08:18:40;27.10;;;19.43;;
8572;SDS011;4324;42.012;24.872;2023-02-28T08:21:23;26.13;;;18.47;;
8572;SDS011;4324;42.012;24.872;2023-02-28T08:23:50;27.30;;;19.77;;
8572;SDS011;4324;42.012;24.872;2023-02-28T08:26:18;21.00;;;16.70;;
8572;SDS011;4324;42.012;24.872;2023-02-28T08:28:45;17.93;;;14.83;;
8572;SDS011;4324;42.012;24.872;2023-02-28T08:31:13;21.23;;;16.43;;
8572;SDS011;4324;42.012;24.872;2023-02-28T08:33:42;20.37;;;15.50;;
8572;SDS011;4324;42.012;24.872;2023-02-28T08:36:10;23.47;;;16.10;;
8572;SDS011;4324;42.012;24.872;2023-02-28T08:38:39;21.17;;;15.67;;
8572;SDS011;4324;42.012;24.872;2023-02-28T08:41:06;23.10;;;16.33;;
8572;SDS011;4324;42.012;24.872;2023-02-28T08:43:35;19.93;;;16.57;;
8572;SDS011;4324;42.012;24.872;2023-02-28T08:46:03;20.27;;;16.07;;
8572;SDS011;4324;42.012;24.872;2023-02-28T08:48:31;22.03;;;16.83;;
8572;SDS011;4324;42.012;24.872;2023-02-28T08:51:00;20.70;;;15.87;;
8572;SDS011;4324;42.012;24.872;2023-02-28T08:53:29;19.83;;;15.73;;
8572;SDS011;4324;42.012;24.872;2023-02-28T08:55:58;22.83;;;16.57;;
8572;SDS011;4324;42.012;24.872;2023-02-28T08:58:26;20.20;;;16.53;;
8572;SDS011;4324;42.012;24.872;2023-02-28T09:00:54;19.70;;;16.60;;
8572;SDS011;4324;42.012;24.872;2023-02-28T09:03:21;21.13;;;16.83;;
8572;SDS011;4324;42.012;24.872;2023-02-28T09:05:52;20.23;;;16.50;;
8572;SDS011;4324;42.012;24.872;2023-02-28T09:08:23;21.67;;;17.70;;
8572;SDS011;4324;42.012;24.872;2023-02-28T09:10:51;21.60;;;19.23;;
8572;SDS011;4324;42.012;24.872;2023-02-28T09:13:20;27.00;;;19.63;;
8572;SDS011;4324;42.012;24.872;2023-02-28T09:15:47;22.80;;;19.07;;
8572;SDS011;4324;42.012;24.872;2023-02-28T09:18:14;22.87;;;17.57;;
8572;SDS011;4324;42.012;24.872;2023-02-28T09:20:42;25.00;;;19.27;;
8572;SDS011;4324;42.012;24.872;2023-02-28T09:23:10;31.40;;;24.67;;
8572;SDS011;4324;42.012;24.872;2023-02-28T09:25:38;27.43;;;20.17;;
8572;SDS011;4324;42.012;24.872;2023-02-28T09:28:11;25.47;;;20.30;;
8572;SDS011;4324;42.012;24.872;2023-02-28T09:30:41;30.10;;;26.50;;
8572;SDS011;4324;42.012;24.872;2023-02-28T09:33:08;20.77;;;18.57;;
8572;SDS011;4324;42.012;24.872;2023-02-28T09:35:35;29.37;;;21.37;;
8572;SDS011;4324;42.012;24.872;2023-02-28T09:38:02;23.10;;;19.77;;
8572;SDS011;4324;42.012;24.872;2023-02-28T09:40:30;32.03;;;26.60;;
8572;SDS011;4324;42.012;24.872;2023-02-28T09:42:57;28.27;;;21.97;;
8572;SDS011;4324;42.012;24.872;2023-02-28T09:45:28;26.53;;;21.20;;
8572;SDS011;4324;42.012;24.872;2023-02-28T09:48:01;28.57;;;21.00;;
8572;SDS011;4324;42.012;24.872;2023-02-28T09:50:31;23.17;;;19.67;;
8572;SDS011;4324;42.012;24.872;2023-02-28T09:53:03;50.93;;;38.07;;
8572;SDS011;4324;42.012;24.872;2023-02-28T09:55:39;37.20;;;28.27;;
8572;SDS011;4324;42.012;24.872;2023-02-28T09:58:11;31.53;;;22.00;;
8572;SDS011;4324;42.012;24.872;2023-02-28T10:00:46;44.53;;;35.50;;
8572;SDS011;4324;42.012;24.872;2023-02-28T10:03:29;29.90;;;24.57;;
8572;SDS011;4324;42.012;24.872;2023-02-28T10:06:03;31.60;;;23.60;;
8572;SDS011;4324;42.012;24.872;2023-02-28T10:08:37;36.70;;;24.53;;
8572;SDS011;4324;42.012;24.872;2023-02-28T10:11:11;31.40;;;25.17;;
8572;SDS011;4324;42.012;24.872;2023-02-28T10:13:45;29.73;;;23.17;;
8572;SDS011;4324;42.012;24.872;2023-02-28T10:16:22;34.27;;;26.00;;
8572;SDS011;4324;42.012;24.872;2023-02-28T10:18:57;37.33;;;24.83;;
8572;SDS011;4324;42.012;24.872;2023-02-28T10:21:30;33.37;;;27.20;;
8572;SDS011;4324;42.012;24.872;2023-02-28T10:24:03;29.43;;;23.03;;
8572;SDS011;4324;42.012;24.872;2023-02-28T10:26:37;32.47;;;25.10;;
8572;SDS011;4324;42.012;24.872;2023-02-28T10:29:04;36.07;;;27.30;;
8572;SDS011;4324;42.012;24.872;2023-02-28T10:31:33;34.07;;;27.13;;
8572;SDS011;4324;42.012;24.872;2023-02-28T10:34:02;37.07;;;30.07;;
8572;SDS011;4324;42.012;24.872;2023-02-28T10:36:29;37.53;;;28.43;;
8572;SDS011;4324;42.012;24.872;2023-02-28T10:38:56;26.77;;;22.83;;
8572;SDS011;4324;42.012;24.872;2023-02-28T10:41:28;30.60;;;24.63;;
8572;SDS011;4324;42.012;24.872;2023-02-28T10:44:12;29.50;;;24.97;;
8572;SDS011;4324;42.012;24.872;2023-02-28T10:46:41;34.73;;;23.23;;
8572;SDS011;4324;42.012;24.872;2023-02-28T10:49:14;29.60;;;25.00;;
8572;SDS011;4324;42.012;24.872;2023-02-28T10:51:46;29.53;;;24.93;;
8572;SDS011;4324;42.012;24.872;2023-02-28T10:54:15;29.80;;;24.27;;
8572;SDS011;4324;42.012;24.872;2023-02-28T10:56:44;32.33;;;25.67;;
8572;SDS011;4324;42.012;24.872;2023-02-28T10:59:23;29.10;;;25.50;;
8572;SDS011;4324;42.012;24.872;2023-02-28T11:01:54;32.80;;;27.17;;
8572;SDS011;4324;42.012;24.872;2023-02-28T11:04:33;32.43;;;26.37;;
8572;SDS011;4324;42.012;24.872;2023-02-28T11:07:05;31.27;;;26.20;;
8572;SDS011;4324;42.012;24.872;2023-02-28T11:09:44;31.90;;;23.73;;
8572;SDS011;4324;42.012;24.872;2023-02-28T11:12:21;28.57;;;22.00;;
8572;SDS011;4324;42.012;24.872;2023-02-28T11:14:52;27.03;;;23.67;;
8572;SDS011;4324;42.012;24.872;2023-02-28T11:17:25;29.00;;;23.20;;
8572;SDS011;4324;42.012;24.872;2023-02-28T11:19:59;24.00;;;21.00;;
8572;SDS011;4324;42.012;24.872;2023-02-28T11:22:29;29.63;;;24.83;;
8572;SDS011;4324;42.012;24.872;2023-02-28T11:25:01;30.23;;;25.97;;
8572;SDS011;4324;42.012;24.872;2023-02-28T11:27:43;34.30;;;27.83;;
8572;SDS011;4324;42.012;24.872;2023-02-28T11:30:23;33.40;;;26.93;;
8572;SDS011;4324;42.012;24.872;2023-02-28T11:33:01;33.50;;;26.47;;
8572;SDS011;4324;42.012;24.872;2023-02-28T11:35:51;29.93;;;24.77;;
8572;SDS011;4324;42.012;24.872;2023-02-28T11:38:24;36.33;;;29.50;;
8572;SDS011;4324;42.012;24.872;2023-02-28T11:40:56;37.83;;;26.73;;
8572;SDS011;4324;42.012;24.872;2023-02-28T11:43:52;34.60;;;26.93;;
8572;SDS011;4324;42.012;24.872;2023-02-28T11:46:29;40.63;;;28.27;;
8572;SDS011;4324;42.012;24.872;2023-02-28T11:49:06;34.47;;;25.90;;
8572;SDS011;4324;42.012;24.872;2023-02-28T11:51:50;32.60;;;24.57;;
8572;SDS011;4324;42.012;24.872;2023-02-28T11:54:41;41.27;;;29.73;;
8572;SDS011;4324;42.012;24.872;2023-02-28T11:57:27;33.80;;;26.80;;
8572;SDS011;4324;42.012;24.872;2023-02-28T12:00:03;31.93;;;27.00;;
8572;SDS011;4324;42.012;24.872;2023-02-28T12:02:48;36.13;;;28.63;;
8572;SDS011;4324;42.012;24.872;2023-02-28T12:05:28;35.20;;;26.97;;
8572;SDS011;4324;42.012;24.872;2023-02-28T12:08:05;32.27;;;27.40;;
8572;SDS011;4324;42.012;24.872;2023-02-28T12:10:44;30.70;;;24.57;;
8572;SDS011;4324;42.012;24.872;2023-02-28T12:13:29;32.30;;;26.67;;
8572;SDS011;4324;42.012;24.872;2023-02-28T12:16:19;30.97;;;26.73;;
8572;SDS011;4324;42.012;24.872;2023-02-28T12:19:01;32.87;;;24.77;;
8572;SDS011;4324;42.012;24.872;2023-02-28T12:21:40;29.30;;;24.43;;
8572;SDS011;4324;42.012;24.872;2023-02-28T12:24:24;34.43;;;24.80;;
8572;SDS011;4324;42.012;24.872;2023-02-28T12:27:05;30.30;;;25.77;;
8572;SDS011;4324;42.012;24.872;2023-02-28T12:29:39;40.13;;;32.67;;
8572;SDS011;4324;42.012;24.872;2023-02-28T12:32:15;40.63;;;34.43;;
8572;SDS011;4324;42.012;24.872;2023-02-28T12:34:48;40.73;;;31.83;;
8572;SDS011;4324;42.012;24.872;2023-02-28T12:37:21;34.63;;;27.93;;
8572;SDS011;4324;42.012;24.872;2023-02-28T12:39:54;36.30;;;24.90;;
8572;SDS011;4324;42.012;24.872;2023-02-28T12:42:31;33.60;;;24.13;;
8572;SDS011;4324;42.012;24.872;2023-02-28T12:45:02;37.33;;;24.93;;
8572;SDS011;4324;42.012;24.872;2023-02-28T12:47:34;30.57;;;23.77;;
8572;SDS011;4324;42.012;24.872;2023-02-28T12:50:02;33.30;;;23.70;;
8572;SDS011;4324;42.012;24.872;2023-02-28T12:52:35;31.20;;;23.80;;
8572;SDS011;4324;42.012;24.872;2023-02-28T12:55:12;33.43;;;25.77;;
8572;SDS011;4324;42.012;24.872;2023-02-28T12:57:45;32.47;;;28.33;;
8572;SDS011;4324;42.012;24.872;2023-02-28T13:00:19;34.27;;;26.53;;
8572;SDS011;4324;42.012;24.872;2023-02-28T13:05:52;30.40;;;26.83;;
8572;SDS011;4324;42.012;24.872;2023-02-28T13:11:28;33.53;;;27.47;;
8572;SDS011;4324;42.012;24.872;2023-02-28T13:13:57;37.90;;;26.80;;
8572;SDS011;4324;42.012;24.872;2023-02-28T13:16:26;37.13;;;28.13;;
8572;SDS011;4324;42.012;24.872;2023-02-28T13:18:53;34.83;;;27.57;;
8572;SDS011;4324;42.012;24.872;2023-02-28T13:21:43;29.53;;;24.07;;
8572;SDS011;4324;42.012;24.872;2023-02-28T13:24:11;31.40;;;24.07;;
8572;SDS011;4324;42.012;24.872;2023-02-28T13:29:58;24.37;;;21.37;;
8572;SDS011;4324;42.012;24.872;2023-02-28T13:32:29;26.03;;;22.07;;
8572;SDS011;4324;42.012;24.872;2023-02-28T13:44:11;23.90;;;21.30;;
8572;SDS011;4324;42.012;24.872;2023-02-28T13:49:44;30.87;;;22.40;;
8572;SDS011;4324;42.012;24.872;2023-02-28T13:52:12;27.77;;;24.73;;
8572;SDS011;4324;42.012;24.872;2023-02-28T13:54:52;30.80;;;24.57;;
8572;SDS011;4324;42.012;24.872;2023-02-28T13:57:51;31.07;;;24.57;;
8572;SDS011;4324;42.012;24.872;2023-02-28T14:00:35;33.10;;;25.00;;
8572;SDS011;4324;42.012;24.872;2023-02-28T14:03:18;36.00;;;28.47;;
8572;SDS011;4324;42.012;24.872;2023-02-28T14:06:08;32.97;;;27.60;;
8572;SDS011;4324;42.012;24.872;2023-02-28T14:08:53;34.30;;;26.53;;
8572;SDS011;4324;42.012;24.872;2023-02-28T14:11:25;30.53;;;25.80;;
8572;SDS011;4324;42.012;24.872;2023-02-28T14:13:54;30.07;;;23.93;;
8572;SDS011;4324;42.012;24.872;2023-02-28T14:16:25;31.67;;;27.40;;
8572;SDS011;4324;42.012;24.872;2023-02-28T14:18:56;30.07;;;25.23;;
8572;SDS011;4324;42.012;24.872;2023-02-28T14:21:27;27.90;;;24.57;;
8572;SDS011;4324;42.012;24.872;2023-02-28T14:24:02;31.20;;;23.70;;
8572;SDS011;4324;42.012;24.872;2023-02-28T14:32:54;29.93;;;22.83;;
8572;SDS011;4324;42.012;24.872;2023-02-28T14:35:43;31.80;;;24.73;;
8572;SDS011;4324;42.012;24.872;2023-02-28T14:38:24;26.00;;;23.20;;
8572;SDS011;4324;42.012;24.872;2023-02-28T14:40:56;27.63;;;24.03;;
8572;SDS011;4324;42.012;24.872;2023-02-28T14:43:31;27.57;;;24.30;;
8572;SDS011;4324;42.012;24.872;2023-02-28T14:46:03;31.07;;;26.13;;
8572;SDS011;4324;42.012;24.872;2023-02-28T14:48:49;31.50;;;28.07;;
8572;SDS011;4324;42.012;24.872;2023-02-28T14:51:20;35.17;;;29.60;;
8572;SDS011;4324;42.012;24.872;2023-02-28T14:53:50;37.13;;;31.80;;
8572;SDS011;4324;42.012;24.872;2023-02-28T14:56:23;33.20;;;28.03;;
8572;SDS011;4324;42.012;24.872;2023-02-28T14:58:53;27.47;;;23.03;;
8572;SDS011;4324;42.012;24.872;2023-02-28T15:01:21;31.07;;;27.27;;
8572;SDS011;4324;42.012;24.872;2023-02-28T15:03:58;29.30;;;25.03;;
8572;SDS011;4324;42.012;24.872;2023-02-28T15:06:28;30.87;;;25.37;;
8572;SDS011;4324;42.012;24.872;2023-02-28T15:09:09;29.53;;;24.30;;
8572;SDS011;4324;42.012;24.872;2023-02-28T15:11:40;28.93;;;23.53;;
8572;SDS011;4324;42.012;24.872;2023-02-28T15:14:07;27.00;;;24.03;;
8572;SDS011;4324;42.012;24.872;2023-02-28T15:16:42;28.03;;;23.23;;
8572;SDS011;4324;42.012;24.872;2023-02-28T15:19:13;24.63;;;20.33;;
8572;SDS011;4324;42.012;24.872;2023-02-28T15:21:48;25.50;;;21.77;;
8572;SDS011;4324;42.012;24.872;2023-02-28T15:24:18;27.63;;;23.30;;
8572;SDS011;4324;42.012;24.872;2023-02-28T15:26:50;29.93;;;25.43;;
8572;SDS011;4324;42.012;24.872;2023-02-28T15:29:21;26.10;;;22.50;;
8572;SDS011;4324;42.012;24.872;2023-02-28T15:31:52;26.00;;;22.90;;